MOL Paramount — 3ECH9 — position and weather

sailwx.info

Track history (hours):
 
Tides and Currents Weather Stations Pressure Air Temp Water Temp Dewpoint Dewpoint Depression Visibility Wind Speed Wind Dir Waves Ship Positions

MOL Paramount

Last reported at 2014-Sep-01 09:18 UTC. Time now 2014-Sep-03 02:25 UTC.
Position N 36°53' W 072°01'.

Length 293 m; draft 12 m.

Type: Cargo ship. MMSI: 371519000.

Date/timePositionNaut miles runAvg speedWind from/ knotsBaromVisibWave heightAir tempDewpointWater temp
2014-Sep-01 09:18N 36°53' W 072°01'  
2014-Aug-27 17:33N 32°06' W 081°01'6 5.6
2014-Aug-27 16:33N 32°07' W 081°07'1 0.7
2014-Aug-27 15:27N 32°07' W 081°08'0 0.0
2014-Aug-27 14:33N 32°07' W 081°08'0 0.0
2014-Aug-27 11:33N 32°07' W 081°08'0 0.0
2014-Aug-27 09:17N 32°07' W 081°08'0 0.0
2014-Aug-27 07:32N 32°07' W 081°08'0 0.0
2014-Aug-27 06:30N 32°07' W 081°08'0 0.0
2014-Aug-27 05:33N 32°07' W 081°08'0 0.0
2014-Aug-27 04:32N 32°07' W 081°08'0 0.0
2014-Aug-27 03:32N 32°07' W 081°08'0 0.0
2014-Aug-27 02:24N 32°07' W 081°08'0 0.0
2014-Aug-27 01:23N 32°07' W 081°08'0 0.0
2014-Aug-27 00:33N 32°07' W 081°08'0 0.0
2014-Aug-26 23:24N 32°07' W 081°08'0 0.0
2014-Aug-26 22:33N 32°07' W 081°08'0 0.0
2014-Aug-26 21:24N 32°07' W 081°08'0 0.0
2014-Aug-26 20:27N 32°07' W 081°08'0 0.0
2014-Aug-26 19:32N 32°07' W 081°08'0 0.0
2014-Aug-26 18:32N 32°07' W 081°08'0 0.0
2014-Aug-26 17:32N 32°07' W 081°08'0 0.0
2014-Aug-26 16:27N 32°07' W 081°08'0 0.0
2014-Aug-26 15:30N 32°07' W 081°08'0 0.0
2014-Aug-26 14:32N 32°07' W 081°08'0 0.0
2014-Aug-26 13:33N 32°07' W 081°08'0 0.0
2014-Aug-26 12:33N 32°07' W 081°08'2 1.7
2014-Aug-26 11:33N 32°06' W 081°07'6 6.2
2014-Aug-26 10:33N 32°05' W 080°59'383 9.7
2014-Aug-24 19:14N 36°49' W 075°46'1014.1
2014-Aug-24 18:33N 36°54' W 075°56'1414.3
2014-Aug-24 17:33N 36°60' W 076°12'8 7.4
2014-Aug-24 16:28N 36°55' W 076°20'0 0.1
2014-Aug-24 15:06N 36°55' W 076°20'0 0.0
2014-Aug-24 11:09N 36°55' W 076°20'0 0.0
2014-Aug-24 05:30N 36°55' W 076°20'0 0.0
2014-Aug-24 02:24N 36°55' W 076°20'212 7.6
2014-Aug-22 22:28N 37°46' W 072°01'12615.7
2014-Aug-22 14:28N 38°26' W 069°29'1818.3
2014-Aug-22 13:28N 38°31' W 069°07'  
Track history (hours):
 
Tides and Currents Weather Stations Pressure Air Temp Water Temp Dewpoint Dewpoint Depression Visibility Wind Speed Wind Dir Waves Ship Positions

MOL Paramount

Last reported at 2014-Sep-01 09:18 UTC. Time now 2014-Sep-03 02:25 UTC.
Position N 36°53' W 072°01'.

Length 293 m; draft 12 m.

Type: Cargo ship. MMSI: 371519000.

Date/timePositionNaut miles runAvg speedWind from/ knotsBaromVisibWave heightAir tempDewpointWater temp
2014-Sep-01 09:18N 36°53' W 072°01'  
2014-Aug-27 17:33N 32°06' W 081°01'6 5.6
2014-Aug-27 16:33N 32°07' W 081°07'1 0.7
2014-Aug-27 15:27N 32°07' W 081°08'0 0.0
2014-Aug-27 14:33N 32°07' W 081°08'0 0.0
2014-Aug-27 11:33N 32°07' W 081°08'0 0.0
2014-Aug-27 09:17N 32°07' W 081°08'0 0.0
2014-Aug-27 07:32N 32°07' W 081°08'0 0.0
2014-Aug-27 06:30N 32°07' W 081°08'0 0.0
2014-Aug-27 05:33N 32°07' W 081°08'0 0.0
2014-Aug-27 04:32N 32°07' W 081°08'0 0.0
2014-Aug-27 03:32N 32°07' W 081°08'0 0.0
2014-Aug-27 02:24N 32°07' W 081°08'0 0.0
2014-Aug-27 01:23N 32°07' W 081°08'0 0.0
2014-Aug-27 00:33N 32°07' W 081°08'0 0.0
2014-Aug-26 23:24N 32°07' W 081°08'0 0.0
2014-Aug-26 22:33N 32°07' W 081°08'0 0.0
2014-Aug-26 21:24N 32°07' W 081°08'0 0.0
2014-Aug-26 20:27N 32°07' W 081°08'0 0.0
2014-Aug-26 19:32N 32°07' W 081°08'0 0.0
2014-Aug-26 18:32N 32°07' W 081°08'0 0.0
2014-Aug-26 17:32N 32°07' W 081°08'0 0.0
2014-Aug-26 16:27N 32°07' W 081°08'0 0.0
2014-Aug-26 15:30N 32°07' W 081°08'0 0.0
2014-Aug-26 14:32N 32°07' W 081°08'0 0.0
2014-Aug-26 13:33N 32°07' W 081°08'0 0.0
2014-Aug-26 12:33N 32°07' W 081°08'2 1.7
2014-Aug-26 11:33N 32°06' W 081°07'6 6.2
2014-Aug-26 10:33N 32°05' W 080°59'383 9.7
2014-Aug-24 19:14N 36°49' W 075°46'1014.1
2014-Aug-24 18:33N 36°54' W 075°56'1414.3
2014-Aug-24 17:33N 36°60' W 076°12'8 7.4
2014-Aug-24 16:28N 36°55' W 076°20'0 0.1
2014-Aug-24 15:06N 36°55' W 076°20'0 0.0
2014-Aug-24 11:09N 36°55' W 076°20'0 0.0
2014-Aug-24 05:30N 36°55' W 076°20'0 0.0
2014-Aug-24 02:24N 36°55' W 076°20'212 7.6
2014-Aug-22 22:28N 37°46' W 072°01'12615.7
2014-Aug-22 14:28N 38°26' W 069°29'1818.3
2014-Aug-22 13:28N 38°31' W 069°07'  

Dump ship's entire track history